createdAt,value
2022-11-17T00:00:43.326Z,3.70
2022-11-17T00:03:20.197Z,3.70
2022-11-17T00:05:47.662Z,3.70
2022-11-17T00:08:15.155Z,3.69
2022-11-17T00:10:42.258Z,3.70
2022-11-17T00:13:30.480Z,3.70
2022-11-17T00:15:59.648Z,3.71
2022-11-17T00:18:45.797Z,3.72
2022-11-17T00:21:21.878Z,3.71
2022-11-17T00:23:50.942Z,3.72
2022-11-17T00:26:20.657Z,3.72
2022-11-17T00:28:51.794Z,3.73
2022-11-17T00:31:37.478Z,3.74
2022-11-17T00:34:07.721Z,3.74
2022-11-17T00:36:46.139Z,3.75
2022-11-17T00:39:17.677Z,3.75
2022-11-17T00:41:45.339Z,3.75
2022-11-17T00:44:14.894Z,3.74
2022-11-17T00:46:42.606Z,3.74
2022-11-17T00:49:13.713Z,3.75
2022-11-17T00:51:41.299Z,3.76
2022-11-17T00:54:11.639Z,3.77
2022-11-17T00:56:40.891Z,3.77
2022-11-17T00:59:08.082Z,3.77
2022-11-17T01:01:35.679Z,3.77
2022-11-17T01:04:03.785Z,3.76
2022-11-17T01:06:39.879Z,3.75
2022-11-17T01:09:15.406Z,3.74
2022-11-17T01:11:43.598Z,3.73
2022-11-17T01:14:14.952Z,3.73
2022-11-17T01:16:42.799Z,3.73
2022-11-17T01:19:13.118Z,3.74
2022-11-17T01:21:40.600Z,3.73
2022-11-17T01:24:08.156Z,3.73
2022-11-17T01:26:37.331Z,3.72
2022-11-17T01:29:06.035Z,3.72
2022-11-17T01:31:39.322Z,3.72
2022-11-17T01:34:07.693Z,3.71
2022-11-17T01:36:56.253Z,3.71
2022-11-17T01:39:25.298Z,3.71
2022-11-17T01:41:53.317Z,3.71
2022-11-17T01:44:42.360Z,3.70
2022-11-17T01:47:35.338Z,3.69
2022-11-17T01:50:17.936Z,3.69
2022-11-17T01:52:45.300Z,3.70
2022-11-17T01:55:13.069Z,3.69
2022-11-17T01:57:45.755Z,3.69
2022-11-17T02:00:13.753Z,3.67
2022-11-17T02:02:41.786Z,3.68
2022-11-17T02:05:21.846Z,3.69
2022-11-17T02:07:51.963Z,3.70
2022-11-17T02:10:19.625Z,3.72
2022-11-17T02:12:48.730Z,3.72
2022-11-17T02:15:15.965Z,3.72
2022-11-17T02:17:44.437Z,3.73
2022-11-17T02:20:56.528Z,3.75
2022-11-17T02:23:51.749Z,3.77
2022-11-17T02:26:43.420Z,3.77
2022-11-17T02:29:22.104Z,3.78
2022-11-17T02:32:01.343Z,3.78
2022-11-17T02:34:29.868Z,3.79
2022-11-17T02:37:06.383Z,3.78
2022-11-17T02:39:41.822Z,3.77
2022-11-17T02:42:57.004Z,3.76
2022-11-17T02:45:56.599Z,3.75
2022-11-17T02:48:29.387Z,3.75
2022-11-17T02:50:58.184Z,3.73
2022-11-17T02:53:26.342Z,3.73
2022-11-17T02:55:56.677Z,3.73
2022-11-17T02:58:23.914Z,3.73
2022-11-17T03:01:24.772Z,3.74
2022-11-17T03:03:57.742Z,3.74
2022-11-17T03:06:56.883Z,3.74
2022-11-17T03:10:05.059Z,3.74
2022-11-17T03:12:43.670Z,3.74
2022-11-17T03:15:32.929Z,3.75
2022-11-17T03:18:06.213Z,3.76
2022-11-17T03:20:45.776Z,3.77
2022-11-17T03:23:22.153Z,3.79
2022-11-17T03:25:55.027Z,3.80
2022-11-17T03:28:30.455Z,3.81
2022-11-17T03:30:59.364Z,3.83
2022-11-17T03:33:28.237Z,3.84
2022-11-17T03:36:01.522Z,3.84
2022-11-17T03:38:31.092Z,3.85
2022-11-17T03:41:00.150Z,3.88
2022-11-17T03:43:27.896Z,3.89
2022-11-17T03:45:57.097Z,3.91
2022-11-17T03:49:22.612Z,3.93
2022-11-17T03:51:51.295Z,3.96
2022-11-17T03:54:18.759Z,3.97
2022-11-17T03:56:51.612Z,3.98
2022-11-17T03:59:30.846Z,3.99
2022-11-17T04:01:58.581Z,4.00
2022-11-17T04:04:46.756Z,4.02
2022-11-17T04:07:13.978Z,4.03
2022-11-17T04:09:41.175Z,4.04
2022-11-17T04:12:27.999Z,4.03
2022-11-17T04:15:13.875Z,4.01
2022-11-17T04:17:41.425Z,4.01
2022-11-17T04:20:09.917Z,4.00
2022-11-17T04:22:37.885Z,4.01
2022-11-17T04:25:06.173Z,4.02
2022-11-17T04:27:52.874Z,4.03
2022-11-17T04:30:20.132Z,4.03
2022-11-17T04:32:47.379Z,4.02
2022-11-17T04:35:14.994Z,4.01
2022-11-17T04:37:43.896Z,4.01
2022-11-17T04:40:11.700Z,4.01
2022-11-17T04:42:38.942Z,4.00
2022-11-17T04:45:07.139Z,4.00
2022-11-17T04:47:34.350Z,3.99
2022-11-17T04:50:01.607Z,3.97
2022-11-17T04:52:29.992Z,3.95
2022-11-17T04:54:58.796Z,3.95
2022-11-17T04:57:26.859Z,3.95
2022-11-17T04:59:54.238Z,3.95
2022-11-17T05:02:21.488Z,3.94
2022-11-17T05:04:58.138Z,3.95
2022-11-17T05:07:25.460Z,3.96
2022-11-17T05:09:52.836Z,3.96
2022-11-17T05:12:39.037Z,3.96
2022-11-17T05:15:08.038Z,3.96
2022-11-17T05:17:36.118Z,3.96
2022-11-17T05:20:03.865Z,3.95
2022-11-17T05:22:50.182Z,3.94
2022-11-17T05:25:18.140Z,3.95
2022-11-17T05:27:46.303Z,3.95
2022-11-17T05:30:14.377Z,3.95
2022-11-17T05:32:41.437Z,3.95
2022-11-17T05:35:09.297Z,3.97
2022-11-17T05:37:36.332Z,3.98
2022-11-17T05:40:03.713Z,3.99
2022-11-17T05:42:32.072Z,4.00
2022-11-17T05:44:59.438Z,4.01
2022-11-17T05:47:26.577Z,4.01
2022-11-17T05:49:54.673Z,3.99
2022-11-17T05:52:21.788Z,3.98
2022-11-17T05:54:48.836Z,3.97
2022-11-17T05:57:22.912Z,3.96
2022-11-17T05:59:54.176Z,3.94
2022-11-17T06:02:30.460Z,3.92
2022-11-17T06:04:57.717Z,3.93
2022-11-17T06:07:25.752Z,3.92
2022-11-17T06:09:53.045Z,3.91
2022-11-17T06:12:20.088Z,3.90
2022-11-17T06:14:47.529Z,3.89
2022-11-17T06:17:22.742Z,3.89
2022-11-17T06:19:58.237Z,3.87
2022-11-17T06:22:27.221Z,3.85
2022-11-17T06:24:54.881Z,3.84
2022-11-17T06:27:25.393Z,3.83
2022-11-17T06:29:53.477Z,3.81
2022-11-17T06:32:21.758Z,3.80
2022-11-17T06:34:55.188Z,3.80
2022-11-17T06:37:24.937Z,3.79
2022-11-17T06:39:52.721Z,3.79
2022-11-17T06:42:19.877Z,3.79
2022-11-17T06:44:47.018Z,3.79
2022-11-17T06:47:14.577Z,3.78
2022-11-17T06:49:41.742Z,3.79
2022-11-17T06:52:08.870Z,3.80
2022-11-17T06:54:36.844Z,3.80
2022-11-17T06:57:04.089Z,3.80
2022-11-17T06:59:31.358Z,3.80
2022-11-17T07:01:58.498Z,3.82
2022-11-17T07:04:25.547Z,3.83
2022-11-17T07:06:52.835Z,3.84
2022-11-17T07:09:20.358Z,3.85
2022-11-17T07:11:47.621Z,3.85
2022-11-17T07:14:14.979Z,3.86
2022-11-17T07:16:44.163Z,3.86
2022-11-17T07:19:12.042Z,3.87
2022-11-17T07:21:39.181Z,3.88
2022-11-17T07:24:06.689Z,3.89
2022-11-17T07:26:34.203Z,3.90
2022-11-17T07:29:01.645Z,3.93
2022-11-17T07:31:29.020Z,3.95
2022-11-17T07:33:57.988Z,3.97
2022-11-17T07:36:25.251Z,4.00
2022-11-17T07:38:52.498Z,4.02
2022-11-17T07:41:19.644Z,4.03
2022-11-17T07:43:46.797Z,4.06
2022-11-17T07:46:15.374Z,4.08
2022-11-17T07:48:43.764Z,4.11
2022-11-17T07:51:12.048Z,4.12
2022-11-17T07:53:39.483Z,4.13
2022-11-17T07:56:11.422Z,4.14
2022-11-17T07:58:39.217Z,4.14
2022-11-17T08:01:08.264Z,4.15
2022-11-17T08:03:35.935Z,4.16
2022-11-17T08:06:04.555Z,4.18
2022-11-17T08:08:32.589Z,4.20
2022-11-17T08:11:11.138Z,4.20
2022-11-17T08:13:39.834Z,4.22
2022-11-17T08:16:08.143Z,4.23
2022-11-17T08:18:36.811Z,4.24
2022-11-17T08:21:10.808Z,4.25
2022-11-17T08:23:40.032Z,4.26
2022-11-17T08:26:09.467Z,4.29
2022-11-17T08:28:37.598Z,4.30
2022-11-17T08:31:06.688Z,4.32
2022-11-17T08:33:34.325Z,4.33
2022-11-17T08:36:02.389Z,4.33
2022-11-17T08:38:29.644Z,4.33
2022-11-17T08:41:05.497Z,4.33
2022-11-17T08:43:32.851Z,4.34
2022-11-17T08:46:00.118Z,4.35
2022-11-17T08:48:27.255Z,4.35
2022-11-17T08:50:54.503Z,4.35
2022-11-17T08:53:23.575Z,4.35
2022-11-17T08:55:52.179Z,4.34
2022-11-17T08:58:19.430Z,4.33
2022-11-17T09:00:47.836Z,4.34
2022-11-17T09:03:15.372Z,4.34
2022-11-17T09:05:47.440Z,4.34
2022-11-17T09:08:44.933Z,4.35
2022-11-17T09:11:11.025Z,4.35
2022-11-17T09:13:39.970Z,4.37
2022-11-17T09:16:09.633Z,4.38
2022-11-17T09:18:38.665Z,4.38
2022-11-17T09:21:11.505Z,4.41
2022-11-17T09:23:39.463Z,4.45
2022-11-17T09:26:09.497Z,4.50
2022-11-17T09:28:37.035Z,4.53
2022-11-17T09:31:16.666Z,4.53
2022-11-17T09:33:44.878Z,4.53
2022-11-17T09:36:13.979Z,4.54
2022-11-17T09:38:41.715Z,4.55
2022-11-17T09:41:27.831Z,4.54
2022-11-17T09:44:18.616Z,4.52
2022-11-17T09:47:01.987Z,4.51
2022-11-17T09:49:58.948Z,4.49
2022-11-17T09:52:44.579Z,4.47
2022-11-17T09:55:23.624Z,4.47
2022-11-17T09:58:36.295Z,4.46
2022-11-17T10:01:04.552Z,4.42
2022-11-17T10:03:36.271Z,4.40
2022-11-17T10:06:18.294Z,4.38
2022-11-17T10:09:00.835Z,4.37
2022-11-17T10:11:33.487Z,4.33
2022-11-17T10:14:30.698Z,4.30
2022-11-17T10:17:00.307Z,4.29
2022-11-17T10:19:31.578Z,4.29
2022-11-17T10:22:04.596Z,4.30
2022-11-17T10:24:48.661Z,4.34
2022-11-17T10:27:21.567Z,4.40
2022-11-17T10:30:07.395Z,4.50
2022-11-17T10:32:42.670Z,4.57
2022-11-17T10:35:20.716Z,4.61
2022-11-17T10:37:59.212Z,4.62
2022-11-17T10:40:32.273Z,4.64
2022-11-17T10:43:14.321Z,4.65
2022-11-17T10:45:49.289Z,4.63
2022-11-17T10:48:22.435Z,4.61
2022-11-17T10:51:10.209Z,4.60
2022-11-17T10:53:46.087Z,4.58
2022-11-17T10:56:16.535Z,4.56
2022-11-17T10:58:59.150Z,4.55
2022-11-17T11:01:35.898Z,4.55
2022-11-17T11:04:05.226Z,4.55
2022-11-17T11:06:34.210Z,4.55
2022-11-17T11:09:05.419Z,4.54
2022-11-17T11:11:47.549Z,4.53
2022-11-17T11:14:39.285Z,4.51
2022-11-17T11:17:12.177Z,4.50
2022-11-17T11:19:41.390Z,4.49
2022-11-17T11:22:28.277Z,4.49
2022-11-17T11:24:59.311Z,4.51
2022-11-17T11:27:41.637Z,4.51
2022-11-17T11:30:17.407Z,4.50
2022-11-17T11:33:01.330Z,4.49
2022-11-17T11:36:00.512Z,4.47
2022-11-17T11:38:49.065Z,4.40
2022-11-17T11:41:29.936Z,4.36
2022-11-17T11:43:58.319Z,4.30
2022-11-17T11:46:47.491Z,4.25
2022-11-17T11:49:26.719Z,4.21
2022-11-17T11:51:55.298Z,4.19
2022-11-17T11:54:46.293Z,4.17
2022-11-17T11:57:21.652Z,4.14
2022-11-17T12:00:09.221Z,4.12
2022-11-17T12:02:49.085Z,4.09
2022-11-17T12:05:33.170Z,4.08
2022-11-17T12:08:15.077Z,4.06
2022-11-17T12:11:01.462Z,4.05
2022-11-17T12:13:29.018Z,4.04
2022-11-17T12:16:18.859Z,4.04
2022-11-17T12:18:46.478Z,4.03
2022-11-17T12:21:14.610Z,3.99
2022-11-17T12:24:06.898Z,3.96
2022-11-17T12:26:35.456Z,3.95
2022-11-17T12:29:21.549Z,3.96
2022-11-17T12:31:53.176Z,3.96
2022-11-17T12:34:26.763Z,3.94
2022-11-17T12:37:13.495Z,3.94
2022-11-17T12:40:04.413Z,3.93
2022-11-17T12:42:33.743Z,3.89
2022-11-17T12:45:16.984Z,3.86
2022-11-17T12:47:59.480Z,3.82
2022-11-17T12:50:43.759Z,3.79
2022-11-17T12:53:13.624Z,3.75
2022-11-17T12:55:46.832Z,3.74
2022-11-17T12:58:44.788Z,3.71
2022-11-17T13:01:40.340Z,3.70
2022-11-17T13:04:21.334Z,3.67
2022-11-17T13:07:01.307Z,3.65
2022-11-17T13:09:31.724Z,3.63
2022-11-17T13:12:04.838Z,3.62
2022-11-17T13:14:33.937Z,3.61
2022-11-17T13:17:03.146Z,3.59
2022-11-17T13:19:35.225Z,3.58
2022-11-17T13:22:17.426Z,3.57
2022-11-17T13:24:50.110Z,3.56
2022-11-17T13:27:28.925Z,3.53
2022-11-17T13:30:24.528Z,3.51
2022-11-17T13:32:54.238Z,3.50
2022-11-17T13:35:26.314Z,3.47
2022-11-17T13:38:12.600Z,3.47
2022-11-17T13:40:41.378Z,3.44
2022-11-17T13:43:12.607Z,3.43
2022-11-17T13:45:41.613Z,3.42
2022-11-17T13:48:35.688Z,3.40
2022-11-17T13:51:23.431Z,3.39
2022-11-17T13:53:54.152Z,3.38
2022-11-17T13:56:32.059Z,3.37
2022-11-17T13:59:17.453Z,3.37
2022-11-17T14:01:45.473Z,3.37
2022-11-17T14:04:19.606Z,3.36
2022-11-17T14:06:54.390Z,3.34
2022-11-17T14:09:22.828Z,3.33
2022-11-17T14:11:50.897Z,3.31
2022-11-17T14:14:35.051Z,3.31
2022-11-17T14:17:22.580Z,3.29
2022-11-17T14:19:49.830Z,3.27
2022-11-17T14:22:24.716Z,3.26
2022-11-17T14:24:57.046Z,3.24
2022-11-17T14:27:30.210Z,3.23
2022-11-17T14:30:00.129Z,3.22
2022-11-17T14:32:27.218Z,3.22
2022-11-17T14:34:54.428Z,3.20
2022-11-17T14:37:21.886Z,3.19
2022-11-17T14:39:49.245Z,3.17
2022-11-17T14:42:16.604Z,3.16
2022-11-17T14:44:44.055Z,3.15
2022-11-17T14:47:11.315Z,3.14
2022-11-17T14:49:38.558Z,3.12
2022-11-17T14:52:06.224Z,3.09
2022-11-17T14:54:34.400Z,3.08
2022-11-17T14:57:01.537Z,3.07
2022-11-17T14:59:29.116Z,3.05
2022-11-17T15:01:57.575Z,3.04
2022-11-17T15:04:49.315Z,3.03
2022-11-17T15:07:13.511Z,3.02
2022-11-17T15:09:40.734Z,3.00
2022-11-17T15:12:08.418Z,2.98
2022-11-17T15:14:38.636Z,2.97
2022-11-17T15:17:08.703Z,2.96
2022-11-17T15:19:39.059Z,2.94
2022-11-17T15:22:07.435Z,2.94
2022-11-17T15:24:36.429Z,2.92
2022-11-17T15:27:03.992Z,2.91
2022-11-17T15:29:31.759Z,2.91
2022-11-17T15:31:59.028Z,2.91
2022-11-17T15:34:26.377Z,2.89
2022-11-17T15:36:53.928Z,2.88
2022-11-17T15:39:21.381Z,2.87
2022-11-17T15:41:51.312Z,2.86
2022-11-17T15:44:21.406Z,2.85
2022-11-17T15:46:48.578Z,2.83
2022-11-17T15:49:16.256Z,2.82
2022-11-17T15:51:43.588Z,2.82
2022-11-17T15:54:16.683Z,2.81
2022-11-17T15:56:48.570Z,2.80
2022-11-17T15:59:16.119Z,2.80
2022-11-17T16:01:43.748Z,2.80
2022-11-17T16:04:13.354Z,2.80
2022-11-17T16:06:42.152Z,2.81
2022-11-17T16:09:15.977Z,2.81
2022-11-17T16:11:43.789Z,2.79
2022-11-17T16:14:11.977Z,2.78
2022-11-17T16:16:40.082Z,2.75
2022-11-17T16:19:08.328Z,2.73
2022-11-17T16:21:35.600Z,2.70
2022-11-17T16:24:03.554Z,2.68
2022-11-17T16:26:31.410Z,2.66
2022-11-17T16:29:04.979Z,2.63
2022-11-17T16:31:35.040Z,2.62
2022-11-17T16:34:13.548Z,2.62
2022-11-17T16:36:43.460Z,2.60
2022-11-17T16:39:13.804Z,2.60
2022-11-17T16:41:43.448Z,2.58
2022-11-17T16:44:12.881Z,2.57
2022-11-17T16:46:43.880Z,2.56
2022-11-17T16:49:13.359Z,2.55
2022-11-17T16:51:41.858Z,2.54
2022-11-17T16:54:12.565Z,2.55
2022-11-17T16:56:39.715Z,2.55
2022-11-17T16:59:07.691Z,2.55
2022-11-17T17:01:36.617Z,2.53
2022-11-17T17:04:09.154Z,2.52
2022-11-17T17:06:40.892Z,2.50
2022-11-17T17:09:10.397Z,2.48
2022-11-17T17:11:39.347Z,2.47
2022-11-17T17:14:08.766Z,2.46
2022-11-17T17:16:38.217Z,2.45
2022-11-17T17:19:10.897Z,2.45
2022-11-17T17:21:41.185Z,2.44
2022-11-17T17:24:09.838Z,2.42
2022-11-17T17:26:38.278Z,2.41
2022-11-17T17:29:10.637Z,2.40
2022-11-17T17:31:40.982Z,2.40
2022-11-17T17:34:11.290Z,2.39
2022-11-17T17:36:40.042Z,2.38
2022-11-17T17:39:16.061Z,2.37
2022-11-17T17:41:44.902Z,2.37
2022-11-17T17:44:20.264Z,2.36
2022-11-17T17:46:49.356Z,2.35
2022-11-17T17:49:19.629Z,2.35
2022-11-17T17:51:48.618Z,2.35
2022-11-17T17:54:19.255Z,2.33
2022-11-17T17:56:48.399Z,2.33
2022-11-17T17:59:18.004Z,2.34
2022-11-17T18:01:50.817Z,2.34
2022-11-17T18:04:19.337Z,2.33
2022-11-17T18:06:48.823Z,2.33
2022-11-17T18:09:26.700Z,2.31
2022-11-17T18:11:55.648Z,2.30
2022-11-17T18:14:29.797Z,2.30
2022-11-17T18:16:57.848Z,2.29
2022-11-17T18:19:32.764Z,2.28
2022-11-17T18:22:04.231Z,2.28
2022-11-17T18:24:33.252Z,2.26
2022-11-17T18:27:02.566Z,2.25
2022-11-17T18:29:30.694Z,2.25
2022-11-17T18:31:58.048Z,2.24
2022-11-17T18:34:27.502Z,2.24
2022-11-17T18:36:56.185Z,2.23
2022-11-17T18:39:24.583Z,2.21
2022-11-17T18:41:51.777Z,2.21
2022-11-17T18:44:20.621Z,2.20
2022-11-17T18:46:49.157Z,2.20
2022-11-17T18:49:17.087Z,2.19
2022-11-17T18:51:45.278Z,2.18
2022-11-17T18:54:14.781Z,2.17
2022-11-17T18:56:45.017Z,2.15
2022-11-17T18:59:14.833Z,2.14
2022-11-17T19:01:43.570Z,2.13
2022-11-17T19:04:15.202Z,2.13
2022-11-17T19:06:43.433Z,2.13
2022-11-17T19:09:11.139Z,2.13
2022-11-17T19:11:40.617Z,2.14
2022-11-17T19:14:08.572Z,2.13
2022-11-17T19:16:44.759Z,2.13
2022-11-17T19:19:14.030Z,2.14
2022-11-17T19:21:43.415Z,2.14
2022-11-17T19:24:11.715Z,2.14
2022-11-17T19:26:43.129Z,2.14
2022-11-17T19:29:16.669Z,2.13
2022-11-17T19:31:47.953Z,2.13
2022-11-17T19:34:17.367Z,2.12
2022-11-17T19:36:48.551Z,2.11
2022-11-17T19:39:17.265Z,2.11
2022-11-17T19:41:46.337Z,2.11
2022-11-17T19:44:13.692Z,2.11
2022-11-17T19:46:43.730Z,2.11
2022-11-17T19:49:13.418Z,2.09
2022-11-17T19:51:47.944Z,2.09
2022-11-17T19:54:16.118Z,2.09
2022-11-17T19:56:43.566Z,2.08
2022-11-17T19:59:15.744Z,2.09
2022-11-17T20:01:44.902Z,2.09
2022-11-17T20:04:13.525Z,2.09
2022-11-17T20:06:41.500Z,2.09
2022-11-17T20:09:16.276Z,2.10
2022-11-17T20:11:45.398Z,2.11
2022-11-17T20:14:15.376Z,2.11
2022-11-17T20:16:44.706Z,2.12
2022-11-17T20:19:13.097Z,2.12
2022-11-17T20:21:40.469Z,2.12
2022-11-17T20:24:08.629Z,2.12
2022-11-17T20:26:40.397Z,2.12
2022-11-17T20:29:08.479Z,2.13
2022-11-17T20:31:37.247Z,2.12
2022-11-17T20:34:06.110Z,2.12
2022-11-17T20:36:35.541Z,2.12
2022-11-17T20:39:05.153Z,2.11
2022-11-17T20:41:32.903Z,2.11
2022-11-17T20:44:01.282Z,2.11
2022-11-17T20:46:29.360Z,2.10
2022-11-17T20:48:57.437Z,2.09
2022-11-17T20:51:26.112Z,2.09
2022-11-17T20:53:54.196Z,2.08
2022-11-17T20:56:22.257Z,2.07
2022-11-17T20:58:50.840Z,2.07
2022-11-17T21:01:21.673Z,2.07
2022-11-17T21:03:49.760Z,2.08
2022-11-17T21:06:17.516Z,2.08
2022-11-17T21:08:45.997Z,2.07
2022-11-17T21:11:37.422Z,2.08
2022-11-17T21:14:06.968Z,2.09
2022-11-17T21:16:35.191Z,2.08
2022-11-17T21:19:02.557Z,2.08
2022-11-17T21:21:31.341Z,2.07
2022-11-17T21:23:58.805Z,2.07
2022-11-17T21:26:28.400Z,2.08
2022-11-17T21:28:55.756Z,2.08
2022-11-17T21:31:26.075Z,2.08
2022-11-17T21:33:58.560Z,2.08
2022-11-17T21:36:28.441Z,2.08
2022-11-17T21:38:56.014Z,2.08
2022-11-17T21:41:25.513Z,2.08
2022-11-17T21:43:54.838Z,2.08
2022-11-17T21:46:24.426Z,2.07
2022-11-17T21:48:52.914Z,2.07
2022-11-17T21:51:29.275Z,2.07
2022-11-17T21:53:58.077Z,2.07
2022-11-17T21:56:27.489Z,2.07
2022-11-17T21:58:59.637Z,2.05
2022-11-17T22:01:29.088Z,2.04
2022-11-17T22:03:56.897Z,2.02
2022-11-17T22:06:26.005Z,2.01
2022-11-17T22:08:54.786Z,2.01
2022-11-17T22:11:37.846Z,2.01
2022-11-17T22:14:28.300Z,2.00
2022-11-17T22:16:57.935Z,1.99
2022-11-17T22:19:29.912Z,1.98
2022-11-17T22:21:57.237Z,1.98
2022-11-17T22:24:24.482Z,1.96
2022-11-17T22:26:52.177Z,1.96
2022-11-17T22:29:21.599Z,1.95
2022-11-17T22:31:51.446Z,1.94
2022-11-17T22:34:19.316Z,1.93
2022-11-17T22:36:46.988Z,1.92
2022-11-17T22:39:14.622Z,1.92
2022-11-17T22:41:41.999Z,1.91
2022-11-17T22:44:12.976Z,1.92
2022-11-17T22:46:41.108Z,1.91
2022-11-17T22:49:08.468Z,1.90
2022-11-17T22:51:54.458Z,1.89
2022-11-17T22:54:21.816Z,1.88
2022-11-17T22:56:49.381Z,1.89
2022-11-17T22:59:17.300Z,1.88
2022-11-17T23:01:44.605Z,1.89
2022-11-17T23:04:12.760Z,1.90
2022-11-17T23:06:40.937Z,1.90
2022-11-17T23:09:08.077Z,1.90
2022-11-17T23:11:37.948Z,1.91
2022-11-17T23:14:08.292Z,1.91
2022-11-17T23:16:39.166Z,1.92
2022-11-17T23:19:07.020Z,1.92
2022-11-17T23:21:34.178Z,1.91
2022-11-17T23:24:01.526Z,1.91
2022-11-17T23:26:28.671Z,1.92
2022-11-17T23:28:55.860Z,1.93
2022-11-17T23:31:23.076Z,1.92
2022-11-17T23:33:50.760Z,1.92
2022-11-17T23:36:20.325Z,1.92
2022-11-17T23:38:48.420Z,1.92
2022-11-17T23:41:17.950Z,1.92
2022-11-17T23:43:45.271Z,1.93
2022-11-17T23:46:17.331Z,1.92
2022-11-17T23:48:45.003Z,1.92
2022-11-17T23:51:17.554Z,1.92
2022-11-17T23:53:45.137Z,1.91
2022-11-17T23:56:12.398Z,1.89
2022-11-17T23:58:40.377Z,1.86
